Quebec, Canada
Current Conditions -  °F | °C
As of 6:00 PM on Thursday 27 Nov 2014 (Local Time) from CYQB Reporting Station
Few Clouds Few Clouds  
Wind Chill: 17°   Ceiling: Unl
Heat Index: 25°   Visibility: 15mi
Dew Point: 14°   Wind: 7mph
Humidity: 64%   Direction: 230°SW
Pressure: 30"   Gusts: NA
Location:  46.81°N, 71.22°W
Report Text: CYQB 272300Z 23006KT 15SM FEW030 FEW160 M04/M10 A3000 RMK CU1AC1 SLP163
Loading
Personal Weather Stations






























Interactive Weather Map New forecast layout! Learn more

10-Day Weather Forecast

Advertisements
Track Severe Weather on mobile